createdAt,value
2022-09-24T00:01:58.908Z,99886.44
2022-09-24T00:05:02.180Z,99883.84
2022-09-24T00:08:05.377Z,99886.75
2022-09-24T00:11:12.432Z,99880.75
2022-09-24T00:14:15.794Z,99893.63
2022-09-24T00:17:18.988Z,99880.44
2022-09-24T00:20:22.847Z,99871.84
2022-09-24T00:23:26.104Z,99876.22
2022-09-24T00:26:48.595Z,99871.81
2022-09-24T00:29:51.861Z,99874.56
2022-09-24T00:32:55.103Z,99868.06
2022-09-24T00:36:01.000Z,99873.59
2022-09-24T00:39:06.019Z,99870.00
2022-09-24T00:42:11.324Z,99868.03
2022-09-24T00:45:14.538Z,99862.59
2022-09-24T00:48:17.910Z,99861.88
2022-09-24T00:51:23.343Z,99863.47
2022-09-24T00:54:30.017Z,99863.94
2022-09-24T00:57:35.700Z,99861.69
2022-09-24T01:00:40.478Z,99864.69
2022-09-24T01:03:44.044Z,99863.06
2022-09-24T01:06:47.323Z,99867.19
2022-09-24T01:09:50.690Z,99861.75
2022-09-24T01:13:05.009Z,99855.28
2022-09-24T01:16:23.411Z,99869.66
2022-09-24T01:20:04.162Z,99875.13
2022-09-24T01:23:49.237Z,99871.66
2022-09-24T01:27:15.704Z,99878.09
2022-09-24T01:30:20.729Z,99870.88
2022-09-24T01:33:26.599Z,99879.03
2022-09-24T01:36:32.627Z,99880.38
2022-09-24T01:39:39.265Z,99874.38
2022-09-24T01:42:45.329Z,99878.19
2022-09-24T01:45:50.527Z,99889.56
2022-09-24T01:48:53.894Z,99878.34
2022-09-24T01:52:03.292Z,99885.75
2022-09-24T01:55:09.036Z,99880.84
2022-09-24T01:58:19.445Z,99887.78
2022-09-24T02:01:31.085Z,99884.31
2022-09-24T02:04:41.001Z,99886.44
2022-09-24T02:07:50.117Z,99886.53
2022-09-24T02:10:58.989Z,99897.91
2022-09-24T02:14:07.943Z,99891.38
2022-09-24T02:17:13.680Z,99895.31
2022-09-24T02:20:21.292Z,99894.22
2022-09-24T02:23:27.384Z,99899.59
2022-09-24T02:26:30.898Z,99901.66
2022-09-24T02:29:34.230Z,99897.44
2022-09-24T02:32:41.996Z,99903.63
2022-09-24T02:35:44.369Z,99900.78
2022-09-24T02:38:48.369Z,99897.69
2022-09-24T02:41:53.827Z,99898.00
2022-09-24T02:44:57.579Z,99899.09
2022-09-24T02:48:03.039Z,99897.75
2022-09-24T02:51:06.732Z,99897.34
2022-09-24T02:54:10.617Z,99901.28
2022-09-24T02:57:13.905Z,99910.34
2022-09-24T03:00:21.171Z,99908.53
2022-09-24T03:03:26.273Z,99919.91
2022-09-24T03:06:30.503Z,99924.69
2022-09-24T03:09:33.862Z,99929.25
2022-09-24T03:12:37.145Z,99936.47
2022-09-24T03:15:40.497Z,99926.81
2022-09-24T03:18:45.439Z,99929.94
2022-09-24T03:21:48.695Z,99931.19
2022-09-24T03:24:52.084Z,99930.50
2022-09-24T03:27:55.372Z,99934.78
2022-09-24T03:31:01.706Z,99935.38
2022-09-24T03:34:06.410Z,99926.19
2022-09-24T03:37:09.687Z,99932.19
2022-09-24T03:40:13.306Z,99936.97
2022-09-24T03:43:16.538Z,99936.28
2022-09-24T03:46:19.782Z,99937.91
2022-09-24T03:49:25.947Z,99942.16
2022-09-24T03:52:29.918Z,99962.34
2022-09-24T03:55:33.189Z,99966.84
2022-09-24T03:58:38.995Z,99968.19
2022-09-24T04:01:42.375Z,99979.34
2022-09-24T04:04:47.054Z,99978.53
2022-09-24T04:07:50.231Z,99978.56
2022-09-24T04:10:55.498Z,99975.88
2022-09-24T04:13:58.828Z,99987.31
2022-09-24T04:17:02.074Z,99985.63
2022-09-24T04:20:08.016Z,99990.84
2022-09-24T04:23:11.788Z,99989.03
2022-09-24T04:26:15.292Z,99991.66
2022-09-24T04:29:18.655Z,99994.94
2022-09-24T04:32:22.599Z,100003.69
2022-09-24T04:35:28.050Z,100006.81
2022-09-24T04:38:31.238Z,100000.66
2022-09-24T04:41:35.167Z,100003.16
2022-09-24T04:44:38.405Z,100005.03
2022-09-24T04:47:41.919Z,100003.53
2022-09-24T04:50:46.724Z,100005.84
2022-09-24T04:53:50.645Z,100011.88
2022-09-24T04:56:53.889Z,100006.16
2022-09-24T04:59:57.165Z,100007.72
2022-09-24T05:03:03.728Z,100007.75
2022-09-24T05:06:08.773Z,100010.56
2022-09-24T05:09:12.877Z,100018.03
2022-09-24T05:12:16.169Z,100013.91
2022-09-24T05:15:20.386Z,100021.69
2022-09-24T05:18:23.647Z,100013.69
2022-09-24T05:21:28.310Z,100021.38
2022-09-24T05:24:31.522Z,100022.19
2022-09-24T05:27:35.863Z,100009.69
2022-09-24T05:30:39.081Z,100021.44
2022-09-24T05:33:42.385Z,100018.78
2022-09-24T05:36:47.098Z,100007.84
2022-09-24T05:39:50.351Z,100013.34
2022-09-24T05:42:53.702Z,100024.56
2022-09-24T05:45:58.757Z,100016.00
2022-09-24T05:49:02.036Z,100023.19
2022-09-24T05:52:07.523Z,100025.09
2022-09-24T05:55:12.126Z,100026.41
2022-09-24T05:58:15.675Z,100029.41
2022-09-24T06:01:19.012Z,100028.56
2022-09-24T06:04:22.253Z,100037.16
2022-09-24T06:07:26.915Z,100041.00
2022-09-24T06:10:30.208Z,100035.28
2022-09-24T06:13:35.097Z,100036.59
2022-09-24T06:16:38.463Z,100036.78
2022-09-24T06:19:42.304Z,100038.94
2022-09-24T06:22:46.946Z,100034.94
2022-09-24T06:25:51.314Z,100030.97
2022-09-24T06:28:54.677Z,100036.19
2022-09-24T06:31:57.934Z,100028.28
2022-09-24T06:35:01.203Z,100039.66
2022-09-24T06:38:06.711Z,100035.75
2022-09-24T06:41:10.595Z,100047.91
2022-09-24T06:44:13.847Z,100047.59
2022-09-24T06:47:17.104Z,100046.13
2022-09-24T06:50:20.464Z,100042.09
2022-09-24T06:53:25.537Z,100047.50
2022-09-24T06:56:28.808Z,100055.03
2022-09-24T06:59:32.078Z,100049.69
2022-09-24T07:02:35.367Z,100047.47
2022-09-24T07:05:43.373Z,100050.84
2022-09-24T07:08:51.796Z,100050.13
2022-09-24T07:11:57.086Z,100046.88
2022-09-24T07:15:01.580Z,100047.13
2022-09-24T07:18:04.988Z,100040.75
2022-09-24T07:21:08.229Z,100042.84
2022-09-24T07:24:12.860Z,100047.13
2022-09-24T07:27:16.350Z,100050.38
2022-09-24T07:30:19.767Z,100049.03
2022-09-24T07:33:23.043Z,100048.34
2022-09-24T07:36:26.390Z,100041.06
2022-09-24T07:39:31.531Z,100042.06
2022-09-24T07:42:34.781Z,100040.47
2022-09-24T07:45:38.025Z,100032.44
2022-09-24T07:48:41.291Z,100037.97
2022-09-24T07:51:44.551Z,100037.34
2022-09-24T07:54:49.689Z,100028.53
2022-09-24T07:57:54.827Z,100026.31
2022-09-24T08:00:59.734Z,100020.97
2022-09-24T08:04:04.693Z,100025.50
2022-09-24T08:07:08.019Z,100030.41
2022-09-24T08:10:12.768Z,100026.84
2022-09-24T08:13:16.334Z,100022.75
2022-09-24T08:16:21.653Z,100028.66
2022-09-24T08:19:24.985Z,100021.78
2022-09-24T08:22:28.227Z,100015.19
2022-09-24T08:25:33.005Z,100017.44
2022-09-24T08:28:36.541Z,100004.78
2022-09-24T08:31:42.211Z,100013.66
2022-09-24T08:34:45.782Z,100012.81
2022-09-24T08:37:48.974Z,100012.88
2022-09-24T08:41:00.309Z,100008.28
2022-09-24T08:44:06.953Z,100001.19
2022-09-24T08:47:24.863Z,100001.47
2022-09-24T08:50:31.252Z,99993.94
2022-09-24T08:53:45.530Z,99987.03
2022-09-24T08:56:52.103Z,99998.22
2022-09-24T08:59:55.807Z,99992.41
2022-09-24T09:03:05.199Z,99985.19
2022-09-24T09:06:17.657Z,99990.59
2022-09-24T09:09:24.712Z,99981.03
2022-09-24T09:12:36.297Z,99982.03
2022-09-24T09:15:44.247Z,99976.00
2022-09-24T09:18:51.060Z,99976.06
2022-09-24T09:21:57.204Z,99973.78
2022-09-24T09:25:05.121Z,99968.66
2022-09-24T09:28:15.209Z,99978.91
2022-09-24T09:31:29.203Z,99965.34
2022-09-24T09:34:47.916Z,99963.25
2022-09-24T09:37:58.569Z,99958.88
2022-09-24T09:41:08.292Z,99955.16
2022-09-24T09:44:19.884Z,99963.25
2022-09-24T09:47:33.431Z,99948.97
2022-09-24T09:50:40.692Z,99950.56
2022-09-24T09:53:55.598Z,99957.91
2022-09-24T09:56:58.899Z,99947.09
2022-09-24T10:00:05.191Z,99944.22
2022-09-24T10:03:27.363Z,99943.63
2022-09-24T10:06:32.902Z,99939.44
2022-09-24T10:09:36.586Z,99925.50
2022-09-24T10:12:39.803Z,99923.22
2022-09-24T10:15:53.121Z,99933.69
2022-09-24T10:18:56.477Z,99922.69
2022-09-24T10:22:08.441Z,99926.75
2022-09-24T10:25:20.775Z,99930.72
2022-09-24T10:28:42.891Z,99910.38
2022-09-24T10:31:49.048Z,99909.91
2022-09-24T10:35:00.590Z,99915.34
2022-09-24T10:38:16.066Z,99900.28
2022-09-24T10:41:28.059Z,99907.34
2022-09-24T10:44:36.796Z,99906.25
2022-09-24T10:47:51.967Z,99905.03
2022-09-24T10:51:04.220Z,99902.56
2022-09-24T10:54:34.686Z,99898.66
2022-09-24T10:57:50.891Z,99897.47
2022-09-24T11:01:04.951Z,99897.69
2022-09-24T11:04:24.172Z,99891.03
2022-09-24T11:07:40.945Z,99883.81
2022-09-24T11:11:19.647Z,99882.13
2022-09-24T11:14:39.096Z,99880.06
2022-09-24T11:17:53.331Z,99869.75
2022-09-24T11:21:07.019Z,99867.38
2022-09-24T11:24:35.436Z,99864.84
2022-09-24T11:27:52.840Z,99861.72
2022-09-24T11:31:04.939Z,99857.72
2022-09-24T11:34:27.483Z,99841.88
2022-09-24T11:37:47.323Z,99845.38
2022-09-24T11:41:10.481Z,99840.16
2022-09-24T11:44:41.149Z,99842.00
2022-09-24T11:48:06.819Z,99832.66
2022-09-24T11:51:21.736Z,99829.25
2022-09-24T11:54:32.789Z,99823.19
2022-09-24T11:57:40.838Z,99828.66
2022-09-24T12:00:48.257Z,99832.19
2022-09-24T12:03:58.469Z,99834.72
2022-09-24T12:07:12.884Z,99834.47
2022-09-24T12:10:34.825Z,99830.34
2022-09-24T12:13:42.418Z,99831.94
2022-09-24T12:16:50.336Z,99835.84
2022-09-24T12:20:00.880Z,99826.59
2022-09-24T12:23:08.099Z,99826.34
2022-09-24T12:26:16.453Z,99815.88
2022-09-24T12:29:53.126Z,99820.63
2022-09-24T12:33:05.152Z,99820.91
2022-09-24T12:36:14.396Z,99817.59
2022-09-24T12:39:20.384Z,99813.13
2022-09-24T12:42:29.174Z,99815.88
2022-09-24T12:45:35.340Z,99815.09
2022-09-24T12:48:41.213Z,99810.69
2022-09-24T12:51:44.611Z,99808.22
2022-09-24T12:54:55.249Z,99803.59
2022-09-24T12:58:03.297Z,99806.69
2022-09-24T13:01:14.530Z,99798.13
2022-09-24T13:04:28.244Z,99804.75
2022-09-24T13:07:35.054Z,99804.72
2022-09-24T13:10:38.583Z,99803.22
2022-09-24T13:13:44.863Z,99805.13
2022-09-24T13:16:50.455Z,99797.44
2022-09-24T13:19:59.200Z,99800.78
2022-09-24T13:23:16.547Z,99796.53
2022-09-24T13:26:35.040Z,99786.94
2022-09-24T13:29:41.748Z,99786.94
2022-09-24T13:32:59.062Z,99787.22
2022-09-24T13:36:12.096Z,99783.03
2022-09-24T13:39:19.345Z,99773.53
2022-09-24T13:42:35.293Z,99770.41
2022-09-24T13:45:42.803Z,99756.47
2022-09-24T13:48:51.586Z,99753.47
2022-09-24T13:52:13.149Z,99754.63
2022-09-24T13:55:21.702Z,99759.25
2022-09-24T13:58:29.105Z,99758.66
2022-09-24T14:01:40.506Z,99750.22
2022-09-24T14:04:44.174Z,99751.72
2022-09-24T14:07:56.973Z,99759.47
2022-09-24T14:11:09.837Z,99752.97
2022-09-24T14:14:19.980Z,99747.78
2022-09-24T14:17:24.771Z,99750.63
2022-09-24T14:20:34.579Z,99754.81
2022-09-24T14:23:42.309Z,99754.25
2022-09-24T14:26:51.088Z,99753.91
2022-09-24T14:29:58.177Z,99747.41
2022-09-24T14:33:06.415Z,99748.31
2022-09-24T14:36:12.939Z,99751.91
2022-09-24T14:39:16.332Z,99752.28
2022-09-24T14:42:25.801Z,99754.91
2022-09-24T14:45:34.331Z,99752.38
2022-09-24T14:48:39.877Z,99754.00
2022-09-24T14:51:54.648Z,99755.06
2022-09-24T14:55:15.414Z,99752.72
2022-09-24T14:58:36.633Z,99749.03
2022-09-24T15:01:40.125Z,99742.56
2022-09-24T15:04:48.684Z,99735.78
2022-09-24T15:07:52.315Z,99735.81
2022-09-24T15:10:57.105Z,99735.91
2022-09-24T15:14:02.539Z,99747.41
2022-09-24T15:17:22.698Z,99738.63
2022-09-24T15:20:27.321Z,99742.88
2022-09-24T15:23:30.654Z,99743.94
2022-09-24T15:26:36.922Z,99741.22
2022-09-24T15:29:40.266Z,99741.69
2022-09-24T15:32:43.764Z,99739.72
2022-09-24T15:35:48.898Z,99750.59
2022-09-24T15:38:53.262Z,99753.91
2022-09-24T15:41:56.556Z,99750.38
2022-09-24T15:45:00.249Z,99755.47
2022-09-24T15:48:03.829Z,99748.56
2022-09-24T15:51:15.408Z,99754.41
2022-09-24T15:54:19.044Z,99754.63
2022-09-24T15:57:22.938Z,99758.03
2022-09-24T16:00:27.472Z,99760.59
2022-09-24T16:03:32.612Z,99751.66
2022-09-24T16:06:37.301Z,99757.34
2022-09-24T16:09:40.987Z,99763.72
2022-09-24T16:12:44.582Z,99760.69
2022-09-24T16:15:47.919Z,99760.72
2022-09-24T16:18:51.175Z,99758.91
2022-09-24T16:21:55.846Z,99759.91
2022-09-24T16:24:59.183Z,99759.06
2022-09-24T16:28:02.857Z,99760.91
2022-09-24T16:31:07.581Z,99758.63
2022-09-24T16:34:11.939Z,99765.59
2022-09-24T16:37:18.426Z,99764.00
2022-09-24T16:40:21.805Z,99767.91
2022-09-24T16:43:25.158Z,99771.44
2022-09-24T16:46:28.656Z,99775.72
2022-09-24T16:49:31.974Z,99777.97
2022-09-24T16:52:36.533Z,99777.41
2022-09-24T16:55:39.779Z,99775.31
2022-09-24T16:58:44.349Z,99776.81
2022-09-24T17:01:47.772Z,99776.00
2022-09-24T17:04:53.594Z,99781.09
2022-09-24T17:07:58.231Z,99779.66
2022-09-24T17:11:00.778Z,99777.63
2022-09-24T17:14:04.505Z,99781.31
2022-09-24T17:17:08.460Z,99780.88
2022-09-24T17:20:12.433Z,99789.06
2022-09-24T17:23:17.088Z,99789.47
2022-09-24T17:26:22.589Z,99792.53
2022-09-24T17:29:31.125Z,99792.53
2022-09-24T17:32:34.897Z,99802.94
2022-09-24T17:35:38.143Z,99801.94
2022-09-24T17:38:43.685Z,99805.59
2022-09-24T17:41:46.978Z,99799.88
2022-09-24T17:44:50.218Z,99799.63
2022-09-24T17:48:01.137Z,99800.25
2022-09-24T17:51:06.806Z,99803.72
2022-09-24T17:54:14.565Z,99807.56
2022-09-24T17:57:17.785Z,99804.91
2022-09-24T18:00:21.064Z,99810.63
2022-09-24T18:03:24.324Z,99812.09
2022-09-24T18:06:32.947Z,99814.09
2022-09-24T18:09:38.054Z,99804.91
2022-09-24T18:12:41.330Z,99810.84
2022-09-24T18:15:44.891Z,99812.44
2022-09-24T18:18:50.333Z,99815.25
2022-09-24T18:21:53.567Z,99818.16
2022-09-24T18:25:01.796Z,99823.84
2022-09-24T18:28:05.039Z,99830.09
2022-09-24T18:31:09.562Z,99831.09
2022-09-24T18:34:15.205Z,99834.63
2022-09-24T18:37:18.579Z,99832.19
2022-09-24T18:40:23.359Z,99836.47
2022-09-24T18:43:26.958Z,99826.28
2022-09-24T18:46:32.785Z,99836.44
2022-09-24T18:49:37.388Z,99830.09
2022-09-24T18:52:40.750Z,99836.75
2022-09-24T18:55:45.451Z,99840.41
2022-09-24T18:58:48.826Z,99843.81
2022-09-24T19:01:52.407Z,99838.19
2022-09-24T19:04:55.775Z,99839.84
2022-09-24T19:07:59.249Z,99840.72
2022-09-24T19:11:09.381Z,99840.78
2022-09-24T19:14:15.162Z,99839.91
2022-09-24T19:17:19.017Z,99834.66
2022-09-24T19:20:23.642Z,99848.59
2022-09-24T19:23:26.934Z,99850.41
2022-09-24T19:26:33.606Z,99853.78
2022-09-24T19:29:36.952Z,99862.63
2022-09-24T19:32:40.274Z,99862.72
2022-09-24T19:35:45.902Z,99863.13
2022-09-24T19:38:49.838Z,99865.78
2022-09-24T19:41:54.534Z,99877.81
2022-09-24T19:44:58.992Z,99881.91
2022-09-24T19:48:02.538Z,99879.81
2022-09-24T19:51:09.191Z,99884.53
2022-09-24T19:54:12.845Z,99878.44
2022-09-24T19:57:18.236Z,99887.88
2022-09-24T20:00:23.738Z,99880.81
2022-09-24T20:03:27.014Z,99878.34
2022-09-24T20:06:31.387Z,99880.25
2022-09-24T20:09:34.742Z,99887.22
2022-09-24T20:12:41.755Z,99885.06
2022-09-24T20:15:45.063Z,99881.16
2022-09-24T20:18:48.514Z,99888.72
2022-09-24T20:21:53.221Z,99886.53
2022-09-24T20:24:56.473Z,99892.34
2022-09-24T20:28:00.156Z,99896.19
2022-09-24T20:31:10.372Z,99903.63
2022-09-24T20:34:13.652Z,99914.34
2022-09-24T20:37:17.004Z,99906.25
2022-09-24T20:40:20.374Z,99909.34
2022-09-24T20:43:25.337Z,99910.66
2022-09-24T20:46:29.493Z,99919.31
2022-09-24T20:49:33.414Z,99920.97
2022-09-24T20:52:36.689Z,99919.94
2022-09-24T20:55:40.349Z,99931.31
2022-09-24T20:58:45.969Z,99929.69
2022-09-24T21:01:49.615Z,99926.50
2022-09-24T21:04:53.169Z,99926.25
2022-09-24T21:07:56.365Z,99930.88
2022-09-24T21:11:02.477Z,99941.16
2022-09-24T21:14:10.449Z,99932.22
2022-09-24T21:17:13.773Z,99935.50
2022-09-24T21:20:17.071Z,99927.31
2022-09-24T21:23:21.668Z,99934.63
2022-09-24T21:26:27.522Z,99927.50
2022-09-24T21:29:32.806Z,99929.22
2022-09-24T21:32:38.863Z,99927.88
2022-09-24T21:35:42.099Z,99925.22
2022-09-24T21:38:46.099Z,99935.53
2022-09-24T21:41:55.037Z,99941.88
2022-09-24T21:45:01.199Z,99937.06
2022-09-24T21:48:04.502Z,99933.59
2022-09-24T21:51:10.101Z,99927.00
2022-09-24T21:54:16.384Z,99931.28
2022-09-24T21:57:19.580Z,99928.28
2022-09-24T22:00:24.428Z,99938.25
2022-09-24T22:03:27.903Z,99924.72
2022-09-24T22:06:32.856Z,99920.31
2022-09-24T22:09:36.196Z,99918.88
2022-09-24T22:12:39.803Z,99925.69
2022-09-24T22:15:46.162Z,99924.13
2022-09-24T22:18:49.365Z,99923.69
2022-09-24T22:21:53.014Z,99940.13
2022-09-24T22:24:56.285Z,99945.81
2022-09-24T22:27:59.584Z,99943.22
2022-09-24T22:31:08.709Z,99941.75
2022-09-24T22:34:29.769Z,99937.91
2022-09-24T22:37:32.957Z,99938.34
2022-09-24T22:40:36.602Z,99946.88
2022-09-24T22:43:40.603Z,99948.28
2022-09-24T22:46:45.301Z,99944.00
2022-09-24T22:49:48.578Z,99945.19
2022-09-24T22:52:52.152Z,99942.16
2022-09-24T22:56:04.696Z,99936.53
2022-09-24T22:59:08.259Z,99940.91
2022-09-24T23:02:13.460Z,99948.41
2022-09-24T23:05:17.096Z,99949.47
2022-09-24T23:08:20.405Z,99942.16
2022-09-24T23:11:25.151Z,99940.59
2022-09-24T23:14:28.513Z,99939.72
2022-09-24T23:17:33.145Z,99943.88
2022-09-24T23:20:36.461Z,99935.06
2022-09-24T23:23:40.579Z,99932.06
2022-09-24T23:26:44.321Z,99935.47
2022-09-24T23:29:47.680Z,99931.28
2022-09-24T23:32:52.345Z,99929.31
2022-09-24T23:35:55.806Z,99935.19
2022-09-24T23:38:59.820Z,99942.34
2022-09-24T23:42:03.171Z,99942.34
2022-09-24T23:45:07.293Z,99938.53
2022-09-24T23:48:12.116Z,99944.44
2022-09-24T23:51:15.423Z,99934.97
2022-09-24T23:54:18.725Z,99941.72
2022-09-24T23:57:21.971Z,99940.88
